PTT weather

Pratt Regional Airport
Pratt, Kansas, United States

Public forecast

Using degrees Fahrenheit for public forecast. Weather courtesy of forecast.io.

Current aviation weather report (METAR) for Pratt Regional Airport

Retrieved 2019/10/19 16:35 UTC (7 minutes ago):

KPTT 191635Z AUTO 35010KT 10SM CLR 17/05 A2990 RMK AO2 T01680051

Closest aviation forecast (TAF) to Pratt Regional Airport

Closest forecast is Great Bend Municipal Airport, 39.0 nm (72.1 km) N. Retrieved 2019/10/19 12:42 UTC (4 hours ago):

TAF KGBD 191141Z 1912/2012 33013KT P6SM SKC FM192300 17007KT P6SM SKC FM200500 17013KT P6SM SKC